Flight Track Log - Related Links

Times and Time Zones

All times are in EST time to prevent confusion due to time zone crossing. See the SWA2336 flight status page for this flight to view local times or setup timezone preferences in your user account.

Time Position Orientation Groundspeed Altitude Reporting Facility
EST Latitude Longitude Course Direction KTS MPH feet Rate Location/Type
Sat 08:34:14 AM 39.1686 -76.7294 180° South 171 197 1,900  Level Washington Center
Sat 08:34:48 AM 39.1500 -76.7167 152° Southeast 206 237 3,400 2,591 Climbing Potomac TRACON
Sat 08:35:42 AM 39.1000 -76.6667 142° Southeast 234 269 5,700 2,211 Climbing Potomac TRACON
Sat 08:36:42 AM 39.0500 -76.6000 134° Southeast 277 319 7,600 2,895 Climbing Potomac TRACON
Sat 08:37:36 AM 39.0000 -76.5333 134° Southeast 280 322 11,200 2,560 Climbing Potomac TRACON
Sat 08:39:12 AM 38.8767 -76.5061 170° South 286 329 14,000 1,077 Climbing Washington Center
Sat 08:40:00 AM 38.6412 -76.9317 180° South  Level Estimated
Sat 08:40:12 AM 38.8033 -76.5400 200° South 268 308 14,000  Level Washington Center
Sat 08:41:13 AM 38.7319 -76.5950 211° Southwest 281 323 15,200 2,033 Climbing Washington Center
Sat 08:42:13 AM 38.6606 -76.6497 211° Southwest 291 335 18,100 2,926 Climbing Washington Center
Sat 08:43:14 AM 38.5872 -76.7044 210° Southwest 309 356 21,100 2,975 Climbing Washington Center
Sat 08:44:12 AM 38.4975 -76.7192 187° South 309 356 24,000 2,471 Climbing Washington Center
Sat 08:45:13 AM 38.4017 -76.7069 174° South 327 376 26,000 1,488 Climbing Washington Center
Sat 08:46:13 AM 38.2994 -76.6897 172° South 347 399 27,000 1,729 Climbing Washington Center
Sat 08:47:11 AM 38.1953 -76.6775 175° South 370 426 29,400 2,471 Climbing Washington Center
Sat 08:48:12 AM 38.0956 -76.6631 173° South 370 426 31,900 1,289 Climbing Washington Center
Sat 08:49:12 AM 37.9975 -76.6511 175° South 365 420 32,000 50 Climbing Washington Center
Sat 08:50:13 AM 37.9036 -76.6525 181° South 359 413 32,000  Level Washington Center
Sat 08:51:11 AM 37.8075 -76.6667 187° South 354 407 32,000  Level Washington Center
Sat 08:52:13 AM 37.7136 -76.6761 185° South 349 402 32,000  Level Washington Center
Sat 08:53:11 AM 37.6175 -76.6878 185° South 349 402 32,000 202 Level Washington Center
Sat 08:54:12 AM 37.5217 -76.7019 187° South 349 402 32,400 984 Climbing Washington Center
Sat 08:55:13 AM 37.4275 -76.7164 187° South 349 402 34,000 1,388 Climbing Washington Center
Sat 08:56:13 AM 37.3394 -76.7542 199° South 337 388 35,200 1,311 Climbing Washington Center
Sat 08:57:12 AM 37.2622 -76.7844 197° South 332 382 36,600 1,160 Climbing Washington Center
Sat 08:58:12 AM 37.1783 -76.8222 200° South 327 376 37,500 694 Climbing Washington Center
Sat 08:59:13 AM 37.0922 -76.8600 199° South 327 376 38,000 246 Climbing Washington Center
Sat 09:00:14 AM 37.0022 -76.8975 198° South 332 382 38,000  Level Washington Center
Sat 09:01:12 AM 36.9142 -76.9350 199° South 332 382 38,000  Level Washington Center
Sat 09:03:12 AM 36.7381 -77.0069 198° South 332 382 38,000  Level Washington Center
Sat 09:04:13 AM 36.6500 -77.0442 199° South 332 382 38,000  Level Washington Center
Sat 09:05:13 AM 36.5642 -77.0764 197° South 326 375 38,000  Level Washington Center
Sat 09:06:11 AM 36.4781 -77.1161 200° South 326 375 38,000  Level Washington Center
Sat 09:07:12 AM 36.3900 -77.1506 197° South 326 375 38,000  Level Washington Center
Sat 09:08:13 AM 36.3042 -77.1847 198° South 326 375 38,000  Level Washington Center
Sat 09:09:14 AM 36.2181 -77.2192 198° South 326 375 38,000  Level Washington Center
Sat 09:10:14 AM 36.1278 -77.2583 199° South 318 366 38,000  Level Washington Center
Sat 09:11:12 AM 36.0375 -77.2900 196° South 318 366 38,000  Level Washington Center
Sat 09:12:12 AM 35.9517 -77.3267 199° South 329 379 38,000  Level Washington Center
Sat 09:13:13 AM 35.8656 -77.3631 199° South 329 379 38,000  Level Washington Center
Sat 09:14:14 AM 35.7794 -77.3944 196° South 329 379 38,000  Level Washington Center
Sat 09:15:14 AM 35.6914 -77.4308 199° South 329 379 38,000  Level Washington Center
Sat 09:17:13 AM 35.5275 -77.4961 198° South 324 373 38,000  Level Washington Center
Sat 09:18:14 AM 35.4414 -77.5297 198° South 324 373 38,000  Level Washington Center
Sat 09:19:12 AM 35.3572 -77.5708 202° Southwest 324 373 38,000  Level Washington Center
Sat 09:20:13 AM 35.2894 -77.6381 219° Southwest 318 366 38,000  Level Washington Center
Sat 09:21:13 AM 35.2233 -77.7100 222° Southwest 318 366 38,000  Level Washington Center
Sat 09:22:11 AM 35.1597 -77.7769 221° Southwest 318 366 38,000  Level Washington Center
Sat 09:23:12 AM 35.0917 -77.8461 220° Southwest 318 366 38,000  Level Washington Center
Sat 09:24:12 AM 35.0233 -77.9178 221° Southwest 318 366 38,000  Level Washington Center
Sat 09:25:13 AM 34.9533 -77.9867 219° Southwest 318 366 38,000  Level Washington Center
Sat 09:26:13 AM 34.8850 -78.0581 221° Southwest 318 366 38,000  Level Washington Center
Sat 09:27:58 AM 34.7603 -78.1850 220° Southwest 323 372 38,000  Level Jacksonville Center
Sat 09:28:58 AM 34.6883 -78.2672 223° Southwest 323 372 38,000  Level Jacksonville Center
Sat 09:29:58 AM 34.6158 -78.3392 219° Southwest 334 384 38,000  Level Jacksonville Center
Sat 09:30:58 AM 34.5494 -78.4081 221° Southwest 334 384 38,000  Level Jacksonville Center
Sat 09:31:58 AM 34.4769 -78.4800 219° Southwest 334 384 38,000  Level Jacksonville Center
Sat 09:32:58 AM 34.4083 -78.5514 221° Southwest 334 384 38,000  Level Jacksonville Center
Sat 09:34:58 AM 34.2672 -78.6917 231° Southwest 334 384 38,000  Level Jacksonville Center
Sat 09:35:58 AM 34.1944 -78.7603 218° Southwest 334 384 38,000  Level Jacksonville Center
Sat 09:36:58 AM 34.1258 -78.8314 221° Southwest 334 384 38,000  Level Jacksonville Center
Sat 09:37:58 AM 34.0569 -78.8997 219° Southwest 339 390 38,000  Level Jacksonville Center
Sat 09:38:58 AM 33.9922 -78.9653 220° Southwest 339 390 38,000  Level Jacksonville Center
Sat 09:39:58 AM 33.9214 -79.0336 219° Southwest 339 390 38,000  Level Jacksonville Center
Sat 09:40:58 AM 33.8525 -79.1042 220° Southwest 334 384 38,000  Level Jacksonville Center
Sat 09:41:58 AM 33.7817 -79.1719 219° Southwest 334 384 38,000  Level Jacksonville Center
Sat 09:42:58 AM 33.7086 -79.2425 219° Southwest 334 384 38,000  Level Jacksonville Center
Sat 09:43:58 AM 33.6375 -79.3128 219° Southwest 327 376 38,000  Level Jacksonville Center
Sat 09:46:58 AM 33.4242 -79.5256 219° Southwest 332 382 38,000  Level Jacksonville Center
Sat 09:47:58 AM 33.3528 -79.5903 217° Southwest 332 382 38,000  Level Jacksonville Center
Sat 09:48:58 AM 33.2961 -79.6497 221° Southwest 337 388 38,000  Level Jacksonville Center
Sat 09:49:58 AM 33.2164 -79.7244 218° Southwest 337 388 38,000  Level Jacksonville Center
Sat 09:50:58 AM 33.1453 -79.7939 219° Southwest 337 388 38,000  Level Jacksonville Center
Sat 09:51:58 AM 33.0717 -79.8636 218° Southwest 337 388 38,000  Level Jacksonville Center
Sat 09:52:00 AM 33.0484 -79.8770 219° Southwest  Level FlightAware Approximate
Sat 09:52:58 AM 33.0003 -79.9328 219° Southwest 337 388 38,000  Level Jacksonville Center
Sat 09:53:58 AM 32.9267 -80.0019 218° Southwest 337 388 38,000  Level Jacksonville Center
Sat 09:54:58 AM 32.8531 -80.0661 216° Southwest 337 388 38,000  Level Jacksonville Center
Sat 09:55:58 AM 32.7772 -80.1253 213° Southwest 337 388 38,000  Level Jacksonville Center
Sat 09:56:58 AM 32.7011 -80.1819 212° Southwest 332 382 38,000  Level Jacksonville Center
Sat 09:57:58 AM 32.6211 -80.2411 212° Southwest 332 382 38,000  Level Jacksonville Center
Sat 09:58:58 AM 32.5428 -80.2975 211° Southwest 332 382 38,000  Level Jacksonville Center
Sat 09:59:58 AM 32.4647 -80.3539 211° Southwest 338 389 38,000  Level Jacksonville Center
Sat 10:00:58 AM 32.3864 -80.4128 212° Southwest 338 389 38,000  Level Jacksonville Center
Sat 10:02:58 AM 32.2281 -80.5275 211° Southwest 338 389 38,000  Level Jacksonville Center
Sat 10:03:58 AM 32.1497 -80.5861 212° Southwest 338 389 38,000  Level Jacksonville Center
Sat 10:04:58 AM 32.0653 -80.6469 211° Southwest 338 389 38,000  Level Jacksonville Center
Sat 10:05:58 AM 31.9950 -80.6978 212° Southwest 332 382 38,000  Level Jacksonville Center
Sat 10:06:58 AM 31.9358 -80.7800 230° Southwest 300 345 38,000  Level Jacksonville Center
Sat 10:08:00 AM 31.8515 -80.8330 208° Southwest  Level FlightAware Approximate
Sat 10:08:58 AM 31.7958 -80.8956 208° Southwest 320 368 38,000  Level Jacksonville Center
Sat 10:10:00 AM 31.7024 -80.9327 207° Southwest  Level FlightAware Approximate
Sat 10:10:58 AM 31.6428 -80.9892 207° Southwest 326 375 38,000  Level Jacksonville Center
Sat 10:11:58 AM 31.5517 -81.0422 206° Southwest 326 375 38,000  Level Jacksonville Center
Sat 10:12:58 AM 31.4711 -81.0900 207° Southwest 326 375 38,000  Level Jacksonville Center
Sat 10:13:58 AM 31.3986 -81.1328 207° Southwest 318 366 38,000  Level Jacksonville Center
Sat 10:14:58 AM 31.3011 -81.1761 201° Southwest 341 392 38,000  Level Jacksonville Center
Sat 10:15:58 AM 31.1944 -81.1731 179° South 374 430 38,000  Level Jacksonville Center
Sat 10:16:58 AM 31.0922 -81.1678 177° South 379 436 38,000 -1,367 Level Jacksonville Center
Sat 10:18:58 AM 30.8811 -81.1619 180° South 379 436 33,900 -2,433 Descending Jacksonville Center
Sat 10:19:58 AM 30.7661 -81.1592 179° South 397 457 30,700 -2,150 Descending Jacksonville Center
Sat 10:20:58 AM 30.6508 -81.1225 165° South 414 476 29,600 -1,350 Descending Jacksonville Center
Sat 10:21:58 AM 30.5417 -81.0789 161° South 414 476 28,000 -800 Descending Jacksonville Center
Sat 10:22:58 AM 30.4306 -81.0375 162° South 420 483 28,000  Level Jacksonville Center
Sat 10:23:58 AM 30.3256 -80.9986 162° South 420 483 28,000  Level Jacksonville Center
Sat 10:25:58 AM 30.1136 -80.9211 153° Southeast 401 461 28,000 -467 Level Jacksonville Center
Sat 10:26:58 AM 30.0064 -80.8825 163° South 401 461 26,600 -1,950 Descending Jacksonville Center
Sat 10:27:58 AM 29.9036 -80.8561 167° South 395 455 24,100 -2,550 Descending Jacksonville Center
Sat 10:28:58 AM 29.7992 -80.8414 173° South 389 448 21,500 -2,300 Descending Jacksonville Center
Sat 10:29:58 AM 29.6967 -80.8317 175° South 384 442 19,500 -2,000 Descending Jacksonville Center
Sat 10:30:58 AM 29.5983 -80.8194 174° South 372 428 17,500 -1,750 Descending Jacksonville Center
Sat 10:31:58 AM 29.5147 -80.8092 174° South 364 419 16,000 -1,800 Descending Jacksonville Center
Sat 10:32:58 AM 29.4247 -80.7919 171° South 350 403 13,900 -1,950 Descending Jacksonville Center
Sat 10:33:58 AM 29.3328 -80.7844 176° South 337 388 12,100 -750 Descending Jacksonville Center
Sat 10:35:30 AM 29.2000 -80.7667 173° South 317 365 12,000 -39 Descending Orlando TRACON
Sat 10:36:30 AM 29.1000 -80.7500 172° South 315 362 12,000  Level Orlando TRACON
Sat 10:37:36 AM 29.0167 -80.7333 170° South 264 304 12,000  Level Orlando TRACON
Sat 10:38:30 AM 28.9500 -80.7500 192° South 277 319 12,000 -526 Level Orlando TRACON
Sat 10:39:30 AM 28.8833 -80.7667 192° South 277 319 11,000 -952 Descending Orlando TRACON
Sat 10:40:36 AM 28.8000 -80.8000 199° South 274 315 10,000 -476 Descending Orlando TRACON
Sat 10:41:36 AM 28.7500 -80.8500 221° Southwest 223 257 10,000 -33 Level Orlando TRACON
Sat 10:43:36 AM 28.6833 -80.9667 237° Southwest 220 253 9,900 -345 Descending Orlando TRACON
Sat 10:44:30 AM 28.6500 -81.0167 233° Southwest 197 227 9,000 -450 Descending Orlando TRACON
Sat 10:45:36 AM 28.6167 -81.0667 233° Southwest 198 228 9,000  Level Orlando TRACON
Sat 10:46:36 AM 28.5833 -81.1167 233° Southwest 198 228 9,000  Level Orlando TRACON
Sat 10:47:36 AM 28.5500 -81.1667 233° Southwest 201 231 9,000  Level Orlando TRACON
Sat 10:48:30 AM 28.5000 -81.1833 196° South 211 243 9,000 -720 Level Orlando TRACON
Sat 10:50:31 AM 28.4000 -81.1833 180° South 205 236 6,900 -1,061 Descending Orlando TRACON
Sat 10:51:31 AM 28.3333 -81.1833 180° South 202 232 5,800 -1,100 Descending Orlando TRACON
Sat 10:53:31 AM 28.2333 -81.1833 180° South 190 219 3,600 -1,067 Descending Orlando TRACON
Sat 10:54:31 AM 28.2000 -81.2167 221° Southwest 183 211 2,600 -667 Descending Orlando TRACON
Sat 10:56:31 AM 28.2833 -81.2833 344° North 184 212 1,600 -333 Descending Orlando TRACON
Sat 10:57:31 AM 28.3333 -81.2833 360° North 183 211 1,600 -300 Level Orlando TRACON
Sat 10:58:31 AM 28.3667 -81.2833 360° North 153 176 1,000 -650 Descending Orlando TRACON
Sat 10:59:31 AM 28.4167 -81.2833 360° North 125 144 300 -700 Descending Orlando TRACON
Sat 11:01:00 AM 28.4167 -81.3000 336° Northwest  Level FlightAware Approximate
Sat 11:08:00 AM 28.4294 -81.3090 336° Northwest  Level Estimated
Sat 11:09:00 AM 28.4294 -81.3090 336° Northwest  Level Estimated
Sat 11:10:00 AM 28.4294 -81.3090 336° Northwest  Level Estimated
Sat 11:11:00 AM 28.4294 -81.3090 336° Northwest  Level Estimated

Login

Don't have an account? Register now (free) for customized features, flight alerts, and more!